Time;durP1;ratioP1;P1;durP2;ratioP2;P2;SDS_P1;SDS_P2;PMS_P1;PMS_P2;Temp;Humidity;BMP_temperature;BMP_pressure;BME280_temperature;BME280_humidity;BME280_pressure;Samples;Min_cycle;Max_cycle;Signal;HPM_P1;HPM_P2
2022/09/19 00:00:44;;;;;;;3.13;0.30;;;;;;;8.79;56.02;101275.56;5013971;28;20534;-64
2022/09/19 00:03:09;;;;;;;6.57;0.60;;;;;;;8.74;55.83;101274.84;5008639;28;20062;-64
2022/09/19 00:05:41;;;;;;;6.30;0.20;;;;;;;8.73;56.16;101271.34;5008179;28;20405;-65
2022/09/19 00:08:07;;;;;;;;;;;;;;;8.74;56.00;101280.06;5008994;28;20446;-65
2022/09/19 00:10:41;;;;;;;6.75;0.15;;;;;;;8.66;56.70;101284.56;5009660;28;19982;-65
2022/09/19 00:13:07;;;;;;;5.95;0.45;;;;;;;8.71;56.30;101285.31;5014184;28;20167;-66
2022/09/19 00:15:45;;;;;;;6.53;0.57;;;;;;;8.66;56.73;101280.19;5009067;28;20040;-65
2022/09/19 00:18:11;;;;;;;4.35;0.50;;;;;;;8.67;56.37;101281.94;5012888;28;20159;-66
2022/09/19 00:20:41;;;;;;;4.75;0.20;;;;;;;8.71;56.27;101278.34;5023924;28;20535;-66
2022/09/19 00:26:04;;;;;;;5.82;0.50;;;;;;;8.66;56.89;101288.00;5014276;28;20406;-66
2022/09/19 00:28:30;;;;;;;4.82;0.52;;;;;;;8.65;57.09;101288.03;4996148;28;20076;-68
2022/09/19 00:30:57;;;;;;;11.93;0.43;;;;;;;8.69;56.50;101300.09;5009490;28;20470;-65
2022/09/19 00:33:27;;;;;;;6.38;0.17;;;;;;;8.74;56.55;101293.09;4997311;28;20029;-64
2022/09/19 00:35:54;;;;;;;5.40;0.22;;;;;;;8.67;56.30;101288.88;5008069;28;20521;-64
2022/09/19 00:38:25;;;;;;;3.35;0.30;;;;;;;8.63;56.26;101292.44;5013551;28;20041;-71
2022/09/19 00:40:53;;;;;;;1.27;0.25;;;;;;;8.64;56.20;101289.81;5015257;28;20044;-73
2022/09/19 00:43:20;;;;;;;6.70;0.30;;;;;;;8.68;56.24;101290.59;5008296;28;20041;-72
2022/09/19 00:45:46;;;;;;;5.25;0.30;;;;;;;8.62;56.41;101293.34;5008373;28;20041;-67
2022/09/19 00:48:18;;;;;;;6.13;1.20;;;;;;;8.57;56.51;101296.91;5007877;28;20033;-66
2022/09/19 00:50:48;;;;;;;8.57;0.45;;;;;;;8.59;56.58;101293.44;5005977;28;20033;-66
2022/09/19 00:53:19;;;;;;;6.32;0.75;;;;;;;8.59;56.22;101299.50;5007436;28;20068;-69
2022/09/19 00:55:45;;;;;;;3.40;0.13;;;;;;;8.59;56.39;101299.50;5007972;28;20025;-69
2022/09/19 00:58:23;;;;;;;4.97;0.40;;;;;;;8.55;56.78;101303.91;5008280;28;20441;-69
2022/09/19 01:00:49;;;;;;;5.80;0.30;;;;;;;8.63;56.93;101305.47;5006310;28;20041;-72
2022/09/19 01:03:15;;;;;;;12.30;0.73;;;;;;;8.61;56.67;101310.72;5007665;28;20041;-71
2022/09/19 01:05:49;;;;;;;5.90;0.65;;;;;;;8.68;56.75;101308.84;5014020;28;20030;-71
2022/09/19 01:08:47;;;;;;;8.43;0.63;;;;;;;8.58;56.58;101305.56;5010661;28;20045;-71
2022/09/19 01:11:48;;;;;;;2.63;0.35;;;;;;;8.64;56.31;101317.63;4991703;28;20076;-71
2022/09/19 01:14:26;;;;;;;10.82;0.30;;;;;;;8.64;56.78;101315.00;5006001;28;20041;-71
2022/09/19 01:17:19;;;;;;;5.80;0.30;;;;;;;8.65;56.39;101314.97;5006163;28;20054;-70
2022/09/19 01:19:47;;;;;;;2.22;0.82;;;;;;;8.65;56.46;101311.50;5014541;28;20034;-69
2022/09/19 01:22:26;;;;;;;6.75;0.80;;;;;;;8.66;56.00;101316.69;5010476;28;20049;-69
2022/09/19 01:25:20;;;;;;;4.10;0.57;;;;;;;8.62;55.95;101319.41;5018483;28;20044;-70
2022/09/19 01:28:11;;;;;;;4.05;0.60;;;;;;;8.59;56.00;101324.69;5033617;28;20938;-69
2022/09/19 01:31:16;;;;;;;1.52;0.10;;;;;;;8.53;55.54;101320.47;5027044;28;20030;-69
2022/09/19 01:33:38;;;;;;;2.47;1.05;;;;;;;8.41;55.80;101319.03;5012177;28;20037;-69
2022/09/19 01:36:05;;;;;;;4.38;0.30;;;;;;;8.33;55.63;101323.56;5012445;28;20030;-69
2022/09/19 01:38:37;;;;;;;0.60;0.17;;;;;;;8.24;56.01;101329.84;5001665;28;20038;-69
2022/09/19 01:41:09;;;;;;;3.40;0.20;;;;;;;8.22;55.92;101326.41;5018142;28;20033;-69
2022/09/19 01:43:35;;;;;;;5.75;0.20;;;;;;;8.20;55.91;101332.53;4995685;28;20040;-69
2022/09/19 01:46:11;;;;;;;8.82;0.63;;;;;;;8.17;56.15;101340.44;5015520;28;20030;-69
2022/09/19 01:48:48;;;;;;;3.85;0.28;;;;;;;8.18;56.13;101331.72;5015611;28;20532;-70
2022/09/19 01:51:18;;;;;;;6.30;0.98;;;;;;;8.13;56.23;101335.28;5016479;28;20398;-69
2022/09/19 01:54:25;;;;;;;2.35;0.20;;;;;;;8.17;56.61;101328.25;4999529;28;20493;-69
2022/09/19 01:57:14;;;;;;;4.43;0.30;;;;;;;8.14;56.92;101337.00;4989695;28;20120;-70
2022/09/19 01:59:48;;;;;;;7.90;0.65;;;;;;;8.24;56.81;101335.03;5017478;28;20033;-70
2022/09/19 02:02:33;;;;;;;4.90;0.82;;;;;;;8.18;56.63;101344.75;4994717;28;20084;-69
2022/09/19 02:05:07;;;;;;;4.72;0.40;;;;;;;8.18;56.72;101339.53;5027357;28;20406;-70
2022/09/19 02:07:42;;;;;;;4.85;0.22;;;;;;;8.14;57.10;101344.81;5011281;28;20033;-70
2022/09/19 02:10:15;;;;;;;5.47;0.93;;;;;;;8.15;57.26;101336.09;5016440;28;20111;-70
2022/09/19 02:12:43;;;;;;;6.85;0.40;;;;;;;8.15;57.40;101346.50;5011322;28;20513;-70
2022/09/19 02:15:29;;;;;;;4.35;0.57;;;;;;;8.28;57.33;101346.25;5001737;28;20034;-69
2022/09/19 02:18:08;;;;;;;8.10;0.20;;;;;;;8.34;57.08;101346.97;5009506;28;20034;-71
2022/09/19 02:20:39;;;;;;;10.82;0.50;;;;;;;8.38;56.60;101344.28;5017241;28;20056;-70
2022/09/19 02:23:22;;;;;;;2.63;0.32;;;;;;;8.34;56.58;101340.91;5027154;28;20041;-69
2022/09/19 02:25:51;;;;;;;11.07;0.50;;;;;;;8.32;57.04;101342.69;5026226;28;20037;-68
2022/09/19 02:28:29;;;;;;;2.47;0.40;;;;;;;8.31;56.83;101346.16;5009026;28;20144;-66
2022/09/19 02:30:56;;;;;;;7.18;0.30;;;;;;;8.30;56.75;101344.47;5008607;28;20364;-68
2022/09/19 02:33:22;;;;;;;3.58;0.32;;;;;;;8.19;56.27;101349.06;5012748;28;20385;-67
2022/09/19 02:36:05;;;;;;;8.13;0.60;;;;;;;8.17;56.14;101346.50;5032028;28;20037;-67
2022/09/19 02:39:00;;;;;;;4.45;0.30;;;;;;;8.07;56.82;101342.38;5030292;28;20049;-67
2022/09/19 02:42:10;;;;;;;3.10;0.32;;;;;;;8.06;56.49;101343.28;4993165;28;20068;-67
2022/09/19 02:45:11;;;;;;;10.02;3.47;;;;;;;8.01;56.71;101353.78;4996845;28;20330;-68
2022/09/19 02:47:59;;;;;;;7.13;1.42;;;;;;;7.94;56.52;101347.00;4999259;28;20057;-67
2022/09/19 02:50:39;;;;;;;12.32;1.25;;;;;;;7.84;56.89;101350.69;5013543;28;20033;-67
2022/09/19 02:53:11;;;;;;;8.43;0.85;;;;;;;7.87;56.46;101361.91;5031200;28;20525;-67
2022/09/19 02:55:45;;;;;;;3.63;0.35;;;;;;;7.78;56.51;101353.41;5014404;28;20371;-68
2022/09/19 02:58:14;;;;;;;2.30;0.20;;;;;;;7.74;56.33;101355.22;5015318;28;20228;-68
2022/09/19 03:00:40;;;;;;;5.47;0.40;;;;;;;7.73;56.82;101359.59;5009843;28;20029;-67
2022/09/19 03:06:07;;;;;;;7.00;0.28;;;;;;;7.72;56.69;101357.84;5015653;28;20061;-67
2022/09/19 03:08:36;;;;;;;5.72;0.30;;;;;;;7.62;56.01;101361.50;5025265;28;20040;-67
2022/09/19 03:11:07;;;;;;;2.05;0.30;;;;;;;7.53;56.42;101359.94;4992355;28;20037;-67
2022/09/19 03:13:38;;;;;;;2.65;1.20;;;;;;;7.51;56.37;101353.91;5014561;28;20045;-67
2022/09/19 03:16:10;;;;;;;0.82;0.20;;;;;;;7.52;56.49;101352.16;5015601;28;20030;-67
2022/09/19 03:18:38;;;;;;;3.08;0.20;;;;;;;7.48;56.40;101363.50;5013716;28;20545;-67
2022/09/19 03:21:08;;;;;;;3.25;0.15;;;;;;;7.39;56.45;101356.72;5014160;28;20033;-67
2022/09/19 03:23:41;;;;;;;2.75;0.20;;;;;;;7.43;56.56;101360.16;5007944;28;20829;-67
2022/09/19 03:26:11;;;;;;;1.97;0.10;;;;;;;7.36;56.76;101354.19;5009879;28;20204;-66
2022/09/19 03:28:38;;;;;;;2.17;0.32;;;;;;;7.41;56.33;101361.91;4996577;28;20644;-67
2022/09/19 03:31:04;;;;;;;6.53;0.63;;;;;;;7.32;56.95;101363.78;5009199;28;20041;-67
2022/09/19 03:33:30;;;;;;;4.28;0.28;;;;;;;7.33;56.58;101370.72;5002939;28;20421;-67
2022/09/19 03:36:06;;;;;;;2.28;0.20;;;;;;;7.28;56.76;101367.31;5030580;28;20021;-67
2022/09/19 03:38:32;;;;;;;3.42;0.30;;;;;;;7.30;56.48;101368.16;5005714;28;20097;-67
2022/09/19 03:41:00;;;;;;;0.85;0.10;;;;;;;7.31;56.59;101369.91;5008949;28;20057;-67
2022/09/19 03:43:27;;;;;;;2.45;0.20;;;;;;;7.35;56.41;101372.44;5003930;28;20189;-67
2022/09/19 03:45:53;;;;;;;1.95;0.52;;;;;;;7.35;56.68;101375.03;5012812;28;20033;-67
2022/09/19 03:48:18;;;;;;;3.58;0.25;;;;;;;7.34;56.49;101376.78;5006674;28;20394;-67
2022/09/19 03:50:45;;;;;;;2.75;0.50;;;;;;;7.38;56.33;101382.75;5011729;28;20034;-67
2022/09/19 03:53:13;;;;;;;2.63;0.20;;;;;;;7.33;56.71;101375.94;4989502;28;20041;-67
2022/09/19 03:55:41;;;;;;;3.10;0.30;;;;;;;7.35;56.70;101383.69;4993329;28;20147;-67
2022/09/19 03:58:12;;;;;;;2.58;0.20;;;;;;;7.38;56.73;101385.34;5009865;28;20056;-66
2022/09/19 04:00:38;;;;;;;5.18;0.20;;;;;;;7.44;56.95;101393.06;5010094;28;20072;-66
2022/09/19 04:03:04;;;;;;;6.05;0.47;;;;;;;7.56;56.98;101392.88;5006660;28;20148;-67
2022/09/19 04:05:32;;;;;;;3.70;0.28;;;;;;;7.64;57.06;101385.75;5014181;28;20565;-66
2022/09/19 04:07:58;;;;;;;2.45;0.20;;;;;;;7.72;56.71;101388.22;5005656;28;20522;-68
2022/09/19 04:10:26;;;;;;;3.13;0.50;;;;;;;7.64;56.39;101401.38;5006390;28;20025;-66
2022/09/19 04:12:52;;;;;;;1.92;0.32;;;;;;;7.52;56.42;101396.38;5009182;28;20037;-67
2022/09/19 04:15:18;;;;;;;3.58;0.30;;;;;;;7.54;56.51;101399.81;5006895;28;20071;-67
2022/09/19 04:17:44;;;;;;;2.63;0.22;;;;;;;7.48;56.63;101405.13;5016392;28;20045;-67
2022/09/19 04:20:14;;;;;;;6.20;1.08;;;;;;;7.39;57.04;101406.16;5011670;28;20029;-67
2022/09/19 04:22:47;;;;;;;3.72;0.47;;;;;;;7.38;56.61;101407.03;4990854;28;20054;-67
2022/09/19 04:25:35;;;;;;;1.30;0.30;;;;;;;7.30;56.85;101407.16;5001017;28;20120;-67
2022/09/19 04:28:11;;;;;;;5.90;0.20;;;;;;;7.36;57.17;101418.38;5010760;28;20110;-67
2022/09/19 04:30:42;;;;;;;3.88;0.40;;;;;;;7.46;57.29;101412.09;5009423;28;20037;-66
2022/09/19 04:33:11;;;;;;;1.87;0.37;;;;;;;7.61;57.01;101421.41;5027873;28;20048;-67
2022/09/19 04:35:38;;;;;;;6.03;0.20;;;;;;;7.69;57.29;101420.38;5014696;28;20280;-66
2022/09/19 04:38:12;;;;;;;4.78;0.63;;;;;;;7.80;57.46;101416.69;5006377;28;20046;-66
2022/09/19 04:40:42;;;;;;;;;;;;;;;7.87;57.83;101419.16;5014601;28;20441;-66
2022/09/19 04:43:09;;;;;;;5.53;0.98;;;;;;;7.91;57.42;101420.81;5011260;28;19986;-66
2022/09/19 04:45:39;;;;;;;3.60;0.30;;;;;;;7.99;57.40;101423.25;5013469;28;20025;-66
2022/09/19 04:48:17;;;;;;;10.20;1.50;;;;;;;8.08;57.64;101420.44;5009582;28;20792;-66
2022/09/19 04:50:44;;;;;;;5.78;0.30;;;;;;;8.17;56.99;101426.38;5014033;28;20721;-66
2022/09/19 04:53:12;;;;;;;5.00;0.60;;;;;;;8.15;57.08;101419.44;5007216;28;20037;-67
2022/09/19 04:55:41;;;;;;;4.50;0.77;;;;;;;8.16;56.77;101425.50;5015196;28;20115;-67
2022/09/19 04:58:07;;;;;;;6.47;0.45;;;;;;;8.13;56.71;101430.75;5007231;28;20049;-68
2022/09/19 05:00:38;;;;;;;6.95;0.93;;;;;;;8.06;56.74;101430.03;5030319;28;20029;-68
2022/09/19 05:03:15;;;;;;;7.57;0.40;;;;;;;7.95;56.65;101421.59;5009782;28;20493;-67
2022/09/19 05:05:50;;;;;;;7.35;0.45;;;;;;;7.82;56.84;101431.38;5014404;28;20029;-68
2022/09/19 05:08:25;;;;;;;5.75;0.52;;;;;;;7.81;56.76;101434.88;5007168;28;20072;-66
2022/09/19 05:10:57;;;;;;;6.68;0.45;;;;;;;7.82;57.07;101430.53;5030492;28;20120;-67
2022/09/19 05:13:23;;;;;;;5.13;0.43;;;;;;;7.77;56.98;101440.19;5028484;28;20170;-67
2022/09/19 05:15:51;;;;;;;5.40;0.40;;;;;;;7.74;57.28;101441.94;5014113;28;20037;-66
2022/09/19 05:18:20;;;;;;;5.10;0.75;;;;;;;7.79;57.10;101446.22;5012391;28;20091;-67
2022/09/19 05:20:48;;;;;;;3.35;0.30;;;;;;;7.74;57.22;101444.56;5014423;28;20034;-66
2022/09/19 05:23:14;;;;;;;3.13;0.20;;;;;;;7.68;57.41;101446.41;5010596;28;20092;-66
2022/09/19 05:25:40;;;;;;;4.03;0.30;;;;;;;7.66;57.03;101441.22;5014731;28;20050;-66
2022/09/19 05:28:08;;;;;;;7.00;1.27;;;;;;;7.63;57.29;101437.84;5013068;28;20490;-66
2022/09/19 05:30:37;;;;;;;5.45;0.85;;;;;;;7.80;57.41;101442.72;5029365;28;20034;-66
2022/09/19 05:33:03;;;;;;;2.33;0.40;;;;;;;8.01;57.48;101447.50;5006613;28;20083;-67
2022/09/19 05:35:43;;;;;;;6.35;0.52;;;;;;;8.34;58.16;101452.91;5013761;28;20061;-66
2022/09/19 05:38:24;;;;;;;4.00;0.52;;;;;;;8.74;57.63;101459.88;4990503;28;20061;-66
2022/09/19 05:40:56;;;;;;;11.10;2.13;;;;;;;8.92;56.77;101459.44;5009483;28;20081;-66
2022/09/19 05:43:41;;;;;;;6.90;0.68;;;;;;;9.13;56.70;101459.81;5005975;28;20144;-67
2022/09/19 05:46:08;;;;;;;5.85;0.45;;;;;;;9.30;56.01;101455.03;5007793;28;20026;-67
2022/09/19 05:48:37;;;;;;;6.03;0.43;;;;;;;9.28;55.42;101462.03;5011088;28;20073;-66
2022/09/19 05:51:03;;;;;;;2.90;0.30;;;;;;;9.22;55.64;101456.97;5013711;28;20572;-67
2022/09/19 05:56:32;;;;;;;2.38;0.38;;;;;;;9.19;55.58;101470.94;5008179;28;20108;-67
2022/09/19 05:59:00;;;;;;;2.88;0.50;;;;;;;9.41;56.01;101470.41;4997912;28;20655;-68
2022/09/19 06:01:27;;;;;;;5.50;0.77;;;;;;;10.53;55.40;101472.53;4988124;28;20029;-67
2022/09/19 06:03:53;;;;;;;8.75;1.23;;;;;;;12.33;51.62;101468.25;5006723;28;20514;-67
2022/09/19 06:06:20;;;;;;;7.05;1.00;;;;;;;13.70;50.65;101468.84;5028343;28;20082;-68
2022/09/19 06:08:55;;;;;;;6.60;0.80;;;;;;;15.03;47.60;101459.16;5007183;28;20060;-66
2022/09/19 06:11:21;;;;;;;6.57;0.93;;;;;;;15.93;45.14;101464.22;4992160;28;20061;-66
2022/09/19 06:16:32;;;;;;;6.63;0.50;;;;;;;17.22;40.62;101466.75;5006281;28;20313;-68
2022/09/19 06:19:20;;;;;;;1.13;0.32;;;;;;;17.56;40.37;101470.94;5010808;28;20042;-66
2022/09/19 06:22:05;;;;;;;4.20;1.10;;;;;;;18.56;39.18;101467.34;5010884;28;20057;-66
2022/09/19 06:24:31;;;;;;;4.30;0.57;;;;;;;19.28;37.02;101470.59;5009730;28;20035;-66
2022/09/19 06:26:57;;;;;;;2.92;0.50;;;;;;;20.01;35.74;101470.91;5009270;28;20046;-67
2022/09/19 06:29:25;;;;;;;7.30;0.75;;;;;;;20.30;32.17;101471.50;4993709;28;20061;-67
2022/09/19 06:32:09;;;;;;;2.80;0.50;;;;;;;20.87;31.95;101476.19;5007699;28;20048;-66
2022/09/19 06:34:40;;;;;;;3.72;1.10;;;;;;;21.62;33.65;101471.47;5009603;28;20063;-66
2022/09/19 06:37:05;;;;;;;1.75;0.50;;;;;;;22.04;32.13;101475.22;5009176;28;20033;-67
2022/09/19 06:39:32;;;;;;;8.43;0.85;;;;;;;22.53;30.20;101481.94;4992817;28;20106;-67
2022/09/19 06:42:17;;;;;;;5.55;0.40;;;;;;;22.52;28.41;101485.59;5009687;28;20104;-67
2022/09/19 06:45:05;;;;;;;4.07;0.65;;;;;;;23.48;28.32;101485.69;5009642;28;20095;-67
2022/09/19 06:47:55;;;;;;;6.65;0.40;;;;;;;23.65;27.84;101484.22;4979909;28;20474;-67
2022/09/19 06:50:59;;;;;;;5.55;0.65;;;;;;;21.60;29.81;101492.88;4997052;28;20050;-67
2022/09/19 06:53:27;;;;;;;5.20;0.52;;;;;;;20.62;32.05;101495.75;5013094;28;20702;-66
2022/09/19 06:55:56;;;;;;;5.07;0.55;;;;;;;20.91;32.25;101501.59;5010700;28;20068;-66
2022/09/19 06:58:24;;;;;;;7.40;0.85;;;;;;;19.46;33.38;101497.63;5013688;28;20124;-67
2022/09/19 07:00:51;;;;;;;10.32;1.20;;;;;;;17.54;35.25;101504.53;4992566;28;20261;-67
2022/09/19 07:03:18;;;;;;;7.38;0.70;;;;;;;17.97;36.61;101503.72;5009300;28;20119;-68
2022/09/19 07:05:51;;;;;;;8.38;0.45;;;;;;;19.98;32.40;101495.84;5010105;28;20030;-68
2022/09/19 07:08:23;;;;;;;9.85;0.95;;;;;;;20.70;30.81;101501.31;5028948;28;20041;-67
2022/09/19 07:10:49;;;;;;;7.03;0.60;;;;;;;20.39;30.67;101500.03;5016001;28;20056;-68
2022/09/19 07:13:16;;;;;;;8.50;1.38;;;;;;;20.25;30.90;101511.66;5006466;28;20522;-67
2022/09/19 07:15:43;;;;;;;7.78;0.88;;;;;;;20.85;31.35;101502.03;5008342;28;20030;-67
2022/09/19 07:18:12;;;;;;;5.07;1.27;;;;;;;21.76;29.57;101509.34;5007644;28;20096;-67
2022/09/19 07:20:39;;;;;;;6.78;0.70;;;;;;;22.52;27.79;101501.56;5015488;28;20026;-67
2022/09/19 07:23:24;;;;;;;5.05;0.77;;;;;;;23.11;27.37;101508.28;5008307;28;20403;-67
2022/09/19 07:26:02;;;;;;;9.15;0.90;;;;;;;23.15;27.11;101508.88;5009205;28;20025;-67
2022/09/19 07:28:27;;;;;;;5.97;1.20;;;;;;;22.86;27.33;101506.81;5007633;28;20382;-67
2022/09/19 07:30:56;;;;;;;8.95;1.02;;;;;;;22.65;28.11;101513.88;5015052;28;20494;-67
2022/09/19 07:33:23;;;;;;;8.88;0.95;;;;;;;22.17;28.62;101523.03;5005593;28;20049;-67
2022/09/19 07:35:51;;;;;;;13.40;1.08;;;;;;;22.78;28.05;101512.78;5008644;28;20039;-70
2022/09/19 07:38:19;;;;;;;15.38;1.75;;;;;;;23.35;27.22;101513.41;5006499;28;20140;-70
2022/09/19 07:41:05;;;;;;;6.97;0.85;;;;;;;23.06;27.46;101520.31;5011856;28;20115;-68
2022/09/19 07:43:49;;;;;;;13.60;1.80;;;;;;;20.25;31.01;101518.78;5010141;28;20068;-68
2022/09/19 07:47:26;;;;;;;;;;;;;;;20.02;32.33;101534.50;4979045;28;20041;-67
2022/09/19 07:49:43;;;;;;;6.10;0.60;;;;;;;21.46;29.55;101535.59;5010263;28;19913;-68
2022/09/19 07:52:22;;;;;;;11.30;1.48;;;;;;;20.19;31.09;101532.44;5007174;28;20144;-67
2022/09/19 07:54:49;;;;;;;11.32;1.33;;;;;;;18.93;33.94;101535.66;4997138;28;20033;-68
2022/09/19 07:57:15;;;;;;;10.93;1.50;;;;;;;20.37;31.26;101530.31;5013194;28;20305;-68
2022/09/19 07:59:41;;;;;;;10.75;1.17;;;;;;;20.81;31.00;101537.72;5010053;28;20042;-67
2022/09/19 08:02:08;;;;;;;13.30;1.02;;;;;;;20.73;30.49;101529.50;5031349;28;20054;-67
2022/09/19 08:04:38;;;;;;;8.43;0.73;;;;;;;19.62;31.92;101531.94;5006706;28;20033;-66
2022/09/19 08:07:05;;;;;;;9.38;1.98;;;;;;;20.54;30.71;101537.94;4998839;28;20103;-67
2022/09/19 08:09:31;;;;;;;9.73;0.77;;;;;;;21.33;29.55;101539.22;5014284;28;20048;-68
2022/09/19 08:12:05;;;;;;;8.60;0.60;;;;;;;21.53;30.05;101551.03;5030133;28;20261;-67
2022/09/19 08:14:34;;;;;;;6.30;0.50;;;;;;;21.36;28.91;101538.13;4999404;28;20080;-67
2022/09/19 08:17:01;;;;;;;7.55;1.05;;;;;;;21.73;28.87;101543.31;5007741;28;20139;-68
2022/09/19 08:19:28;;;;;;;9.43;0.93;;;;;;;22.27;28.96;101545.31;5008504;28;20269;-68
2022/09/19 08:21:53;;;;;;;12.02;1.80;;;;;;;21.92;28.87;101556.03;4996650;28;20048;-67
2022/09/19 08:24:19;;;;;;;12.25;0.98;;;;;;;21.77;28.68;101547.44;5007193;28;20025;-69
2022/09/19 08:26:45;;;;;;;7.80;0.40;;;;;;;21.74;28.73;101553.84;5012698;28;20040;-66
2022/09/19 08:29:12;;;;;;;15.70;1.13;;;;;;;21.07;29.68;101556.25;5005049;28;20061;-68
2022/09/19 08:31:52;;;;;;;7.35;0.90;;;;;;;20.85;29.63;101559.66;5004131;28;20130;-67
2022/09/19 08:34:23;;;;;;;11.52;1.88;;;;;;;20.48;30.76;101565.75;5008172;28;20902;-68
2022/09/19 08:36:51;;;;;;;12.10;1.02;;;;;;;19.83;32.44;101564.09;5011808;28;20556;-67
2022/09/19 08:39:16;;;;;;;10.48;1.48;;;;;;;18.19;34.69;101575.53;5006412;28;20041;-67
2022/09/19 08:41:56;;;;;;;9.25;0.75;;;;;;;16.85;38.06;101573.66;5028861;28;20037;-68
2022/09/19 08:44:45;;;;;;;9.63;1.48;;;;;;;18.26;35.12;101586.59;5006985;28;20197;-67
2022/09/19 08:47:13;;;;;;;12.13;1.92;;;;;;;18.66;33.66;101578.81;5013183;28;20041;-66
2022/09/19 08:50:13;;;;;;;6.72;1.40;;;;;;;16.48;37.35;101588.81;5007777;28;20025;-67
2022/09/19 08:52:47;;;;;;;11.13;1.00;;;;;;;15.37;40.04;101584.78;4986989;28;20433;-66
2022/09/19 08:55:22;;;;;;;11.68;1.00;;;;;;;15.53;39.79;101586.66;5011943;28;20034;-67
2022/09/19 08:58:00;;;;;;;15.63;0.90;;;;;;;16.87;38.34;101587.59;5012058;28;20367;-66
2022/09/19 09:00:41;;;;;;;16.55;1.35;;;;;;;17.19;38.11;101594.56;4998713;28;20064;-67
2022/09/19 09:03:14;;;;;;;14.43;1.50;;;;;;;17.75;37.69;101591.41;5011564;28;20136;-67
2022/09/19 09:05:56;;;;;;;7.93;0.73;;;;;;;17.37;37.83;101592.69;5007923;28;20030;-67
2022/09/19 09:09:26;;;;;;;9.98;0.82;;;;;;;16.27;39.19;101602.22;5026183;28;20122;-68
2022/09/19 09:12:03;;;;;;;10.10;1.15;;;;;;;15.07;40.82;101605.50;4909128;28;20051;-65
2022/09/19 09:14:36;;;;;;;9.85;1.10;;;;;;;15.39;40.99;101611.03;4922806;28;20034;-66
2022/09/19 09:17:36;;;;;;;12.30;1.00;;;;;;;15.98;41.10;101603.72;5006072;28;20079;-67
2022/09/19 09:20:28;;;;;;;10.45;0.98;;;;;;;15.69;40.35;101613.09;5008971;28;20069;-67
2022/09/19 09:23:16;;;;;;;14.98;1.85;;;;;;;15.02;41.64;101615.41;5012135;28;20597;-66
2022/09/19 09:26:06;;;;;;;14.13;0.82;;;;;;;14.61;42.40;101606.78;5031150;28;20775;-67
2022/09/19 09:28:38;;;;;;;15.63;1.80;;;;;;;14.28;43.44;101613.47;5005427;28;20536;-67
2022/09/19 09:31:27;;;;;;;11.02;0.85;;;;;;;15.30;41.56;101611.47;5006757;28;20041;-65
2022/09/19 09:34:03;;;;;;;5.05;0.65;;;;;;;16.05;40.22;101605.13;5012756;28;20477;-66
2022/09/19 09:36:42;;;;;;;12.50;1.45;;;;;;;15.95;39.82;101609.13;5028295;28;20033;-74
2022/09/19 09:39:49;;;;;;;15.68;1.52;;;;;;;15.98;38.98;101599.28;5012861;28;20056;-65
2022/09/19 09:42:22;;;;;;;9.80;1.20;;;;;;;17.39;38.29;101606.66;5030783;28;20034;-66
2022/09/19 09:45:01;;;;;;;15.82;1.95;;;;;;;16.91;37.30;101604.97;5012239;28;20549;-69
2022/09/19 09:47:50;;;;;;;13.52;1.08;;;;;;;16.42;38.13;101598.78;5032879;28;21214;-74
2022/09/19 09:50:46;;;;;;;12.20;1.40;;;;;;;16.67;38.31;101602.75;4998188;28;20385;-75
2022/09/19 09:53:46;;;;;;;7.78;1.40;;;;;;;15.94;38.62;101602.16;5010604;28;20052;-77
2022/09/19 09:56:34;;;;;;;9.95;1.40;;;;;;;16.76;37.71;101604.91;5024826;28;20034;-68
2022/09/19 10:03:34;;;;;;;11.25;1.45;;;;;;;17.12;36.81;101602.94;4998500;28;20128;-67
2022/09/19 10:05:09;;;;;;;11.45;0.68;;;;;;;16.26;38.04;101602.31;5016079;28;20029;-68
2022/09/19 10:07:47;;;;;;;10.93;1.52;;;;;;;15.02;40.15;101623.31;5009055;28;20384;-67
2022/09/19 10:10:20;;;;;;;5.80;0.77;;;;;;;15.16;41.28;101620.88;5031115;28;20250;-67
2022/09/19 10:12:58;;;;;;;9.33;1.17;;;;;;;14.42;43.94;101627.81;5007961;28;20191;-67
2022/09/19 10:15:25;;;;;;;13.05;0.82;;;;;;;13.28;47.09;101633.34;5008770;28;20740;-68
2022/09/19 10:18:09;;;;;;;10.55;1.08;;;;;;;13.47;47.59;101641.38;5030359;28;20106;-66
2022/09/19 10:20:51;;;;;;;12.27;1.20;;;;;;;13.67;47.43;101639.72;5008300;28;20109;-67
2022/09/19 10:23:25;;;;;;;10.63;1.10;;;;;;;13.97;47.19;101631.50;5008903;28;20050;-70
2022/09/19 10:26:04;;;;;;;9.95;0.45;;;;;;;14.14;47.08;101628.97;4993626;28;20037;-68
2022/09/19 10:28:37;;;;;;;6.63;0.80;;;;;;;14.41;47.08;101640.13;5008018;28;21676;-67
2022/09/19 10:31:38;;;;;;;7.07;0.50;;;;;;;14.07;46.10;101631.00;4949041;28;20042;-67
2022/09/19 10:34:32;;;;;;;8.80;1.27;;;;;;;13.77;46.71;101630.53;5015680;28;20121;-67
2022/09/19 10:37:02;;;;;;;11.15;1.35;;;;;;;14.47;45.96;101641.59;5014181;28;20076;-68
2022/09/19 10:39:30;;;;;;;17.42;1.05;;;;;;;15.64;43.32;101638.81;5031926;28;20036;-68
2022/09/19 10:41:55;;;;;;;7.57;0.63;;;;;;;16.03;41.38;101627.25;5008220;28;20045;-67
2022/09/19 10:44:25;;;;;;;11.13;0.80;;;;;;;15.52;42.94;101641.13;5009288;28;20037;-67
2022/09/19 10:47:13;;;;;;;9.07;1.02;;;;;;;15.52;42.24;101638.47;4991819;28;20175;-68
2022/09/19 10:49:52;;;;;;;11.38;1.05;;;;;;;15.84;40.88;101643.97;5010962;28;20037;-68
2022/09/19 10:52:33;;;;;;;13.13;0.77;;;;;;;15.65;40.96;101638.75;5028157;28;20034;-69
2022/09/19 10:55:02;;;;;;;10.45;1.80;;;;;;;15.07;41.53;101634.47;5011127;28;20869;-69
2022/09/19 10:57:53;;;;;;;10.30;0.90;;;;;;;14.47;42.60;101657.38;5008276;28;20045;-68
2022/09/19 11:00:30;;;;;;;16.25;1.83;;;;;;;14.25;42.18;101647.75;5031084;28;20581;-67
2022/09/19 11:03:15;;;;;;;13.13;1.42;;;;;;;15.16;41.31;101646.34;5008211;28;20558;-68
2022/09/19 11:05:41;;;;;;;6.93;0.65;;;;;;;15.08;39.74;101646.72;4997300;28;20037;-69
2022/09/19 11:08:25;;;;;;;13.20;1.00;;;;;;;15.50;39.60;101645.59;5029929;28;20037;-70
2022/09/19 11:10:54;;;;;;;6.22;0.50;;;;;;;14.61;41.07;101648.88;5025336;28;20041;-69
2022/09/19 11:13:30;;;;;;;7.85;0.80;;;;;;;14.75;40.28;101649.97;5011142;28;20033;-67
2022/09/19 11:16:11;;;;;;;7.35;0.35;;;;;;;14.65;39.83;101653.09;5008372;28;20030;-69
2022/09/19 11:19:12;;;;;;;10.95;1.25;;;;;;;13.99;41.65;101661.19;5014852;28;20127;-67
2022/09/19 11:21:48;;;;;;;7.32;0.50;;;;;;;14.15;40.67;101659.63;4997660;28;20033;-69
2022/09/19 11:24:23;;;;;;;10.93;1.13;;;;;;;14.39;39.69;101657.72;5008774;28;20025;-69
2022/09/19 11:27:17;;;;;;;14.35;1.58;;;;;;;15.93;38.31;101651.41;5013594;28;20041;-69
2022/09/19 11:29:53;;;;;;;13.35;0.82;;;;;;;16.21;37.12;101656.13;5031610;28;20928;-67
2022/09/19 11:32:34;;;;;;;11.32;0.98;;;;;;;15.62;37.95;101648.56;5028968;28;20037;-67
2022/09/19 11:35:15;;;;;;;5.82;0.90;;;;;;;15.16;38.32;101662.16;5009299;28;20034;-69
2022/09/19 11:37:57;;;;;;;5.55;0.85;;;;;;;14.95;39.08;101666.66;5014169;28;20045;-66
2022/09/19 11:40:56;;;;;;;6.40;0.50;;;;;;;15.12;38.49;101657.94;5030622;28;20136;-68
2022/09/19 11:43:59;;;;;;;8.57;1.27;;;;;;;15.71;37.91;101663.94;5006054;28;20048;-68
2022/09/19 11:46:39;;;;;;;9.18;0.63;;;;;;;15.05;38.44;101675.81;5013946;28;20044;-69
2022/09/19 11:49:39;;;;;;;8.57;1.25;;;;;;;14.87;38.43;101671.41;5015927;28;20052;-69
2022/09/19 11:52:26;;;;;;;9.00;0.88;;;;;;;14.95;38.91;101669.28;5011783;28;20049;-68
2022/09/19 11:55:03;;;;;;;11.18;1.25;;;;;;;14.59;38.08;101677.91;4997374;28;20103;-67
2022/09/19 11:57:55;;;;;;;8.10;1.35;;;;;;;14.69;38.06;101675.72;5012675;28;20037;-69
2022/09/19 12:00:25;;;;;;;10.60;0.80;;;;;;;15.12;38.18;101671.94;5030099;28;20041;-67
2022/09/19 12:03:24;;;;;;;11.45;1.35;;;;;;;14.46;39.28;101666.22;5027933;28;20037;-68
2022/09/19 12:06:10;;;;;;;12.77;0.68;;;;;;;14.92;38.69;101675.50;5005495;28;20038;-68
2022/09/19 12:08:59;;;;;;;7.55;1.10;;;;;;;14.57;38.50;101674.50;5013033;28;20096;-68
2022/09/19 12:11:44;;;;;;;5.88;0.25;;;;;;;14.52;39.58;101676.44;5011698;28;20309;-66
2022/09/19 12:14:28;;;;;;;4.18;0.88;;;;;;;15.65;37.56;101667.72;5007297;28;20034;-70
2022/09/19 12:17:10;;;;;;;12.23;0.98;;;;;;;14.59;39.57;101677.91;5015227;28;20798;-68
2022/09/19 12:19:57;;;;;;;12.02;0.85;;;;;;;14.85;38.40;101683.75;5011069;28;20044;-68